createdAt,value
2018-03-23T00:00:02.490Z,0.27
2018-03-23T00:00:06.488Z,0.26
2018-03-23T00:00:10.608Z,0.25
2018-03-23T00:00:14.709Z,0.27
2018-03-23T00:00:18.715Z,0.26
2018-03-23T00:00:22.814Z,0.26
2018-03-23T00:00:26.702Z,0.25
2018-03-23T00:00:30.694Z,0.26
2018-03-23T00:00:34.800Z,0.26
2018-03-23T00:00:38.910Z,0.26
2018-03-23T00:00:43.226Z,0.26
2018-03-23T00:00:47.429Z,0.26
2018-03-23T00:00:51.742Z,0.26
2018-03-23T00:00:55.949Z,0.26
2018-03-23T00:01:00.269Z,0.25
2018-03-23T00:01:04.395Z,0.26
2018-03-23T00:01:08.618Z,0.25
2018-03-23T00:01:12.721Z,0.26
2018-03-23T00:01:16.830Z,0.26
2018-03-23T00:01:20.709Z,0.26
2018-03-23T00:01:24.702Z,0.25
2018-03-23T00:01:28.910Z,0.26
2018-03-23T00:01:33.223Z,0.25
2018-03-23T00:01:37.432Z,0.26
2018-03-23T00:01:41.639Z,0.26
2018-03-23T00:01:45.846Z,0.25
2018-03-23T00:01:50.065Z,0.26
2018-03-23T00:01:54.387Z,0.27
2018-03-23T00:01:58.382Z,0.25
2018-03-23T00:02:02.599Z,0.25
2018-03-23T00:02:06.374Z,0.25
2018-03-23T00:02:10.368Z,0.25
2018-03-23T00:02:14.695Z,0.25
2018-03-23T00:02:18.901Z,0.25
2018-03-23T00:02:22.896Z,0.25
2018-03-23T00:02:26.775Z,0.25
2018-03-23T00:02:30.878Z,0.25
2018-03-23T00:02:35.082Z,0.25
2018-03-23T00:02:39.235Z,0.25
2018-03-23T00:02:43.240Z,0.25
2018-03-23T00:02:47.237Z,0.24
2018-03-23T00:02:51.354Z,0.24
2018-03-23T00:02:55.564Z,0.24
2018-03-23T00:02:59.672Z,0.24
2018-03-23T00:03:04.045Z,0.24
2018-03-23T00:03:08.036Z,0.25
2018-03-23T00:03:12.246Z,0.24
2018-03-23T00:03:16.455Z,0.24
2018-03-23T00:03:20.444Z,0.24
2018-03-23T00:03:24.655Z,0.25
2018-03-23T00:03:28.750Z,0.25
2018-03-23T00:03:32.871Z,0.24
2018-03-23T00:03:36.866Z,0.25
2018-03-23T00:03:41.082Z,0.25
2018-03-23T00:03:45.401Z,0.24
2018-03-23T00:03:49.502Z,0.24
2018-03-23T00:03:53.707Z,0.25
2018-03-23T00:03:57.806Z,0.24
2018-03-23T00:04:01.992Z,0.24
2018-03-23T00:04:06.198Z,0.25
2018-03-23T00:04:10.405Z,0.23
2018-03-23T00:04:14.404Z,0.23
2018-03-23T00:04:18.512Z,0.24
2018-03-23T00:04:22.508Z,0.23
2018-03-23T00:04:26.563Z,0.23
2018-03-23T00:04:30.559Z,0.23
2018-03-23T00:04:34.767Z,0.23
2018-03-23T00:04:38.975Z,0.23
2018-03-23T00:04:43.178Z,0.22
2018-03-23T00:04:47.168Z,0.22
2018-03-23T00:04:51.162Z,0.23
2018-03-23T00:04:55.478Z,0.22
2018-03-23T00:04:59.480Z,0.23
2018-03-23T00:05:03.691Z,0.21
2018-03-23T00:05:07.806Z,0.23
2018-03-23T00:05:12.064Z,0.21
2018-03-23T00:05:16.277Z,0.23
2018-03-23T00:05:20.487Z,0.21
2018-03-23T00:05:24.478Z,0.22
2018-03-23T00:05:28.468Z,0.21
2018-03-23T00:05:32.668Z,0.22
2018-03-23T00:05:36.658Z,0.21
2018-03-23T00:05:40.868Z,0.21
2018-03-23T00:05:45.073Z,0.21
2018-03-23T00:05:48.961Z,0.21
2018-03-23T00:05:53.064Z,0.21
2018-03-23T00:05:57.055Z,0.21
2018-03-23T00:06:01.151Z,0.21
2018-03-23T00:06:05.288Z,0.21
2018-03-23T00:06:09.391Z,0.2
2018-03-23T00:06:13.703Z,0.2
2018-03-23T00:06:17.915Z,0.2
2018-03-23T00:06:21.906Z,0.2
2018-03-23T00:06:26.015Z,0.2
2018-03-23T00:06:30.119Z,0.2
2018-03-23T00:06:34.327Z,0.21
2018-03-23T00:06:38.431Z,0.2
2018-03-23T00:06:42.639Z,0.2
2018-03-23T00:06:46.636Z,0.2
2018-03-23T00:06:50.631Z,0.19
2018-03-23T00:06:54.784Z,0.2
2018-03-23T00:06:58.887Z,0.19
2018-03-23T00:07:02.987Z,0.2
2018-03-23T00:07:06.980Z,0.2
2018-03-23T00:07:10.983Z,0.2
2018-03-23T00:07:15.082Z,0.19
2018-03-23T00:07:19.083Z,0.19
2018-03-23T00:07:23.072Z,0.19
2018-03-23T00:07:27.061Z,0.19
2018-03-23T00:07:30.946Z,0.19
2018-03-23T00:07:34.935Z,0.19
2018-03-23T00:07:39.042Z,0.2
2018-03-23T00:07:43.256Z,0.19
2018-03-23T00:07:47.151Z,0.19
2018-03-23T00:07:51.470Z,0.19
2018-03-23T00:07:55.571Z,0.19
2018-03-23T00:07:59.799Z,0.19
2018-03-23T00:08:03.907Z,0.19
2018-03-23T00:08:07.902Z,0.2
2018-03-23T00:08:12.002Z,0.19
2018-03-23T00:08:16.104Z,0.19
2018-03-23T00:08:20.093Z,0.19
2018-03-23T00:08:24.191Z,0.2
2018-03-23T00:08:28.245Z,0.19
2018-03-23T00:08:32.345Z,0.18
2018-03-23T00:08:36.556Z,0.19
2018-03-23T00:08:40.892Z,0.19
2018-03-23T00:08:45.000Z,0.19
2018-03-23T00:08:49.212Z,0.19
2018-03-23T00:08:53.316Z,0.18
2018-03-23T00:08:57.305Z,0.18
2018-03-23T00:09:01.298Z,0.19
2018-03-23T00:09:05.659Z,0.18
2018-03-23T00:09:09.654Z,0.18
2018-03-23T00:09:14.016Z,0.18
2018-03-23T00:09:18.007Z,0.18
2018-03-23T00:09:22.112Z,0.18
2018-03-23T00:09:26.358Z,0.18
2018-03-23T00:09:30.246Z,0.18
2018-03-23T00:09:34.576Z,0.17
2018-03-23T00:09:38.800Z,0.17
2018-03-23T00:09:43.012Z,0.17
2018-03-23T00:09:47.110Z,0.17
2018-03-23T00:09:51.104Z,0.18
2018-03-23T00:09:55.425Z,0.18
2018-03-23T00:09:59.742Z,0.17
2018-03-23T00:10:03.878Z,0.18
2018-03-23T00:10:07.990Z,0.17
2018-03-23T00:10:12.206Z,0.18
2018-03-23T00:10:16.426Z,0.17
2018-03-23T00:10:20.642Z,0.17
2018-03-23T00:10:24.635Z,0.18
2018-03-23T00:10:28.837Z,0.17
2018-03-23T00:10:32.835Z,0.16
2018-03-23T00:10:36.839Z,0.17
2018-03-23T00:10:40.832Z,0.17
2018-03-23T00:10:44.938Z,0.17
2018-03-23T00:10:49.146Z,0.18
2018-03-23T00:10:53.135Z,0.17
2018-03-23T00:10:57.142Z,0.17
2018-03-23T00:11:01.130Z,0.17
2018-03-23T00:11:05.122Z,0.17
2018-03-23T00:11:09.229Z,0.18
2018-03-23T00:11:13.547Z,0.17
2018-03-23T00:11:17.537Z,0.18
2018-03-23T00:11:21.859Z,0.17
2018-03-23T00:11:25.961Z,0.17
2018-03-23T00:11:29.951Z,0.17
2018-03-23T00:11:33.731Z,0.18
2018-03-23T00:11:37.829Z,0.18
2018-03-23T00:11:41.935Z,0.18
2018-03-23T00:11:45.824Z,0.18
2018-03-23T00:11:49.807Z,0.17
2018-03-23T00:11:54.033Z,0.17
2018-03-23T00:11:58.250Z,0.17
2018-03-23T00:12:02.458Z,0.17
2018-03-23T00:12:06.566Z,0.17
2018-03-23T00:12:10.449Z,0.18
2018-03-23T00:12:14.560Z,0.17
2018-03-23T00:12:18.773Z,0.17
2018-03-23T00:12:22.912Z,0.17
2018-03-23T00:12:26.902Z,0.18
2018-03-23T00:12:30.894Z,0.17
2018-03-23T00:12:35.214Z,0.18
2018-03-23T00:12:39.421Z,0.18
2018-03-23T00:12:43.626Z,0.17
2018-03-23T00:12:47.785Z,0.18
2018-03-23T00:12:51.881Z,0.17
2018-03-23T00:12:55.989Z,0.18
2018-03-23T00:13:00.202Z,0.18
2018-03-23T00:13:04.507Z,0.19
2018-03-23T00:13:08.496Z,0.18
2018-03-23T00:13:12.496Z,0.19
2018-03-23T00:13:16.705Z,0.18
2018-03-23T00:13:20.699Z,0.18
2018-03-23T00:13:24.475Z,0.19
2018-03-23T00:13:28.681Z,0.18
2018-03-23T00:13:32.670Z,0.18
2018-03-23T00:13:36.663Z,0.18
2018-03-23T00:13:40.992Z,0.19
2018-03-23T00:13:45.093Z,0.19
2018-03-23T00:13:49.204Z,0.18
2018-03-23T00:13:53.087Z,0.18
2018-03-23T00:13:57.183Z,0.19
2018-03-23T00:14:01.177Z,0.18
2018-03-23T00:14:05.490Z,0.17
2018-03-23T00:14:09.372Z,0.18
2018-03-23T00:14:13.468Z,0.18
2018-03-23T00:14:17.459Z,0.18
2018-03-23T00:14:21.446Z,0.18
2018-03-23T00:14:25.662Z,0.18
2018-03-23T00:14:29.771Z,0.18
2018-03-23T00:14:33.765Z,0.17
2018-03-23T00:14:38.082Z,0.18
2018-03-23T00:14:42.068Z,0.18
2018-03-23T00:14:46.068Z,0.18
2018-03-23T00:14:50.171Z,0.18
2018-03-23T00:14:54.278Z,0.18
2018-03-23T00:14:58.046Z,0.19
2018-03-23T00:15:02.149Z,0.18
2018-03-23T00:15:06.260Z,0.18
2018-03-23T00:15:10.477Z,0.17
2018-03-23T00:15:14.472Z,0.17
2018-03-23T00:15:18.676Z,0.18
2018-03-23T00:15:22.781Z,0.17
2018-03-23T00:15:26.775Z,0.18
2018-03-23T00:15:30.872Z,0.18
2018-03-23T00:15:34.970Z,0.18
2018-03-23T00:15:39.075Z,0.18
2018-03-23T00:15:43.079Z,0.17
2018-03-23T00:15:47.392Z,0.18
2018-03-23T00:15:51.495Z,0.18
2018-03-23T00:15:55.810Z,0.17
2018-03-23T00:15:59.914Z,0.17
2018-03-23T00:16:04.029Z,0.18
2018-03-23T00:16:08.129Z,0.17
2018-03-23T00:16:12.445Z,0.18
2018-03-23T00:16:16.764Z,0.17
2018-03-23T00:16:20.646Z,0.18
2018-03-23T00:16:24.750Z,0.17
2018-03-23T00:16:28.957Z,0.17
2018-03-23T00:16:33.169Z,0.17
2018-03-23T00:16:37.382Z,0.18
2018-03-23T00:16:41.695Z,0.16
2018-03-23T00:16:45.691Z,0.18
2018-03-23T00:16:49.789Z,0.18
2018-03-23T00:16:53.891Z,0.17
2018-03-23T00:16:57.987Z,0.17
2018-03-23T00:17:02.086Z,0.17
2018-03-23T00:17:06.311Z,0.17
2018-03-23T00:17:10.407Z,0.17
2018-03-23T00:17:14.306Z,0.17
2018-03-23T00:17:18.407Z,0.17
2018-03-23T00:17:22.504Z,0.18
2018-03-23T00:17:26.606Z,0.17
2018-03-23T00:17:30.709Z,0.18
2018-03-23T00:17:34.918Z,0.17
2018-03-23T00:17:39.129Z,0.17
2018-03-23T00:17:43.129Z,0.17
2018-03-23T00:17:47.118Z,0.18
2018-03-23T00:17:51.114Z,0.18
2018-03-23T00:17:55.102Z,0.17
2018-03-23T00:17:59.205Z,0.17
2018-03-23T00:18:03.417Z,0.18
2018-03-23T00:18:07.534Z,0.18
2018-03-23T00:18:11.751Z,0.18
2018-03-23T00:18:15.754Z,0.17
2018-03-23T00:18:19.857Z,0.18
2018-03-23T00:18:24.065Z,0.18
2018-03-23T00:18:28.386Z,0.18
2018-03-23T00:18:32.596Z,0.18
2018-03-23T00:18:36.696Z,0.18
2018-03-23T00:18:40.686Z,0.18
2018-03-23T00:19:16.796Z,0.19
2018-03-23T00:19:20.894Z,0.18
2018-03-23T00:19:24.997Z,0.18
2018-03-23T00:19:29.220Z,0.18
2018-03-23T00:19:33.102Z,0.18
2018-03-23T00:19:37.310Z,0.18
2018-03-23T00:19:41.634Z,0.18
2018-03-23T00:19:45.855Z,0.17
2018-03-23T00:19:50.069Z,0.17
2018-03-23T00:19:54.278Z,0.17
2018-03-23T00:19:58.382Z,0.18
2018-03-23T00:20:02.535Z,0.18
2018-03-23T00:20:06.526Z,0.18
2018-03-23T00:20:10.626Z,0.18
2018-03-23T00:20:14.673Z,0.18
2018-03-23T00:20:18.890Z,0.17
2018-03-23T00:20:22.766Z,0.19
2018-03-23T00:20:26.867Z,0.18
2018-03-23T00:20:30.979Z,0.18
2018-03-23T00:20:35.293Z,0.18
2018-03-23T00:20:39.500Z,0.18
2018-03-23T00:20:43.595Z,0.18
2018-03-23T00:20:47.813Z,0.18
2018-03-23T00:20:51.923Z,0.18
2018-03-23T00:20:55.921Z,0.17
2018-03-23T00:20:59.927Z,0.17
2018-03-23T00:21:04.030Z,0.18
2018-03-23T00:21:08.248Z,0.18
2018-03-23T00:21:12.352Z,0.18
2018-03-23T00:21:16.234Z,0.18
2018-03-23T00:21:20.220Z,0.17
2018-03-23T00:21:24.321Z,0.17
2018-03-23T00:21:28.426Z,0.17
2018-03-23T00:21:32.414Z,0.18
2018-03-23T00:21:36.636Z,0.18
2018-03-23T00:21:40.630Z,0.17
2018-03-23T00:21:44.832Z,0.18
2018-03-23T00:21:48.821Z,0.18
2018-03-23T00:21:52.932Z,0.18
2018-03-23T00:21:57.034Z,0.18
2018-03-23T00:22:01.246Z,0.18
2018-03-23T00:22:05.535Z,0.18
2018-03-23T00:22:09.531Z,0.18
2018-03-23T00:22:13.634Z,0.17
2018-03-23T00:22:17.839Z,0.17
2018-03-23T00:22:22.152Z,0.17
2018-03-23T00:22:26.164Z,0.17
2018-03-23T00:22:30.153Z,0.18
2018-03-23T00:22:33.934Z,0.17
2018-03-23T00:22:38.140Z,0.17
2018-03-23T00:22:42.252Z,0.17
2018-03-23T00:22:46.349Z,0.17
2018-03-23T00:22:50.457Z,0.17
2018-03-23T00:22:54.551Z,0.17
2018-03-23T00:22:58.545Z,0.16
2018-03-23T00:23:02.744Z,0.17
2018-03-23T00:23:06.954Z,0.17
2018-03-23T00:23:10.945Z,0.17
2018-03-23T00:23:15.048Z,0.17
2018-03-23T00:23:19.047Z,0.17
2018-03-23T00:23:23.162Z,0.18
2018-03-23T00:23:27.267Z,0.18
2018-03-23T00:23:31.392Z,0.18
2018-03-23T00:23:35.285Z,0.18
2018-03-23T00:23:39.622Z,0.18
2018-03-23T00:23:43.722Z,0.18
2018-03-23T00:23:47.935Z,0.18
2018-03-23T00:23:52.252Z,0.18
2018-03-23T00:23:56.354Z,0.18
2018-03-23T00:24:00.454Z,0.18
2018-03-23T00:24:04.778Z,0.17
2018-03-23T00:24:08.875Z,0.17
2018-03-23T00:24:13.196Z,0.18
2018-03-23T00:24:17.191Z,0.18
2018-03-23T00:24:21.401Z,0.17
2018-03-23T00:24:25.505Z,0.18
2018-03-23T00:24:29.713Z,0.17
2018-03-23T00:24:33.809Z,0.17
2018-03-23T00:24:37.914Z,0.17
2018-03-23T00:24:41.911Z,0.17
2018-03-23T00:24:45.800Z,0.17
2018-03-23T00:24:50.005Z,0.17
2018-03-23T00:24:54.212Z,0.17
2018-03-23T00:24:58.526Z,0.18
2018-03-23T00:25:02.624Z,0.17
2018-03-23T00:25:06.938Z,0.17
2018-03-23T00:25:10.828Z,0.17
2018-03-23T00:25:15.045Z,0.17
2018-03-23T00:25:19.268Z,0.17
2018-03-23T00:25:23.499Z,0.17
2018-03-23T00:25:27.596Z,0.17
2018-03-23T00:25:31.493Z,0.18
2018-03-23T00:25:35.707Z,0.17
2018-03-23T00:25:39.808Z,0.17
2018-03-23T00:25:43.806Z,0.17
2018-03-23T00:25:47.797Z,0.18
2018-03-23T00:25:51.904Z,0.17
2018-03-23T00:25:56.016Z,0.17
2018-03-23T00:26:00.012Z,0.17
2018-03-23T00:26:04.133Z,0.17
2018-03-23T00:26:08.142Z,0.18
2018-03-23T00:26:12.239Z,0.18
2018-03-23T00:26:16.332Z,0.18
2018-03-23T00:26:20.646Z,0.18
2018-03-23T00:26:24.529Z,0.17
2018-03-23T00:26:28.639Z,0.18
2018-03-23T00:26:32.851Z,0.17
2018-03-23T00:26:37.177Z,0.18
2018-03-23T00:26:41.170Z,0.18
2018-03-23T00:26:45.379Z,0.17
2018-03-23T00:26:49.378Z,0.17
2018-03-23T00:26:53.693Z,0.17
2018-03-23T00:26:57.797Z,0.18
2018-03-23T00:27:01.992Z,0.17
2018-03-23T00:27:06.095Z,0.18
2018-03-23T00:27:09.983Z,0.18
2018-03-23T00:27:14.292Z,0.17
2018-03-23T00:27:18.068Z,0.18
2018-03-23T00:27:22.275Z,0.17
2018-03-23T00:27:26.267Z,0.18
2018-03-23T00:27:30.256Z,0.18
2018-03-23T00:27:34.296Z,0.18
2018-03-23T00:27:38.401Z,0.17
2018-03-23T00:27:42.407Z,0.17
2018-03-23T00:27:46.619Z,0.18
2018-03-23T00:27:50.839Z,0.18
2018-03-23T00:27:55.047Z,0.17
2018-03-23T00:27:59.264Z,0.18
2018-03-23T00:28:03.353Z,0.17
2018-03-23T00:28:07.467Z,0.17
2018-03-23T00:28:11.677Z,0.17
2018-03-23T00:28:15.899Z,0.16
2018-03-23T00:28:20.111Z,0.17
2018-03-23T00:28:24.322Z,0.17
2018-03-23T00:28:28.425Z,0.18
2018-03-23T00:28:32.421Z,0.17
2018-03-23T00:28:36.788Z,0.17
2018-03-23T00:28:41.011Z,0.17
2018-03-23T00:28:45.114Z,0.17
2018-03-23T00:28:49.102Z,0.17
2018-03-23T00:28:53.323Z,0.17
2018-03-23T00:28:57.572Z,0.17
2018-03-23T00:29:01.352Z,0.17
2018-03-23T00:29:05.236Z,0.16
2018-03-23T00:29:09.016Z,0.17
2018-03-23T00:29:13.337Z,0.17
2018-03-23T00:29:17.550Z,0.17
2018-03-23T00:29:21.694Z,0.18
2018-03-23T00:29:25.796Z,0.17
2018-03-23T00:29:29.576Z,0.17
2018-03-23T00:29:33.787Z,0.17
2018-03-23T00:29:37.665Z,0.18
2018-03-23T00:29:41.762Z,0.17
2018-03-23T00:29:45.872Z,0.17
2018-03-23T00:29:49.973Z,0.17
2018-03-23T00:29:54.079Z,0.18
2018-03-23T00:29:58.075Z,0.17
2018-03-23T00:30:02.286Z,0.17
2018-03-23T00:30:06.397Z,0.17
2018-03-23T00:30:10.387Z,0.17
2018-03-23T00:30:14.707Z,0.17
2018-03-23T00:30:18.696Z,0.17
2018-03-23T00:30:22.920Z,0.17
2018-03-23T00:30:27.016Z,0.17
2018-03-23T00:30:31.111Z,0.18
2018-03-23T00:30:35.102Z,0.17
2018-03-23T00:30:39.310Z,0.17
2018-03-23T00:30:43.535Z,0.17
2018-03-23T00:30:47.747Z,0.17
2018-03-23T00:30:51.847Z,0.17
2018-03-23T00:30:55.947Z,0.17
2018-03-23T00:31:00.062Z,0.17
2018-03-23T00:31:04.270Z,0.17
2018-03-23T00:31:08.483Z,0.17
2018-03-23T00:31:12.483Z,0.18
2018-03-23T00:31:16.524Z,0.18
2018-03-23T00:31:20.739Z,0.18
2018-03-23T00:31:24.729Z,0.18
2018-03-23T00:31:28.725Z,0.17
2018-03-23T00:31:32.822Z,0.17
2018-03-23T00:31:37.033Z,0.18
2018-03-23T00:31:41.133Z,0.18
2018-03-23T00:31:45.234Z,0.18
2018-03-23T00:31:49.575Z,0.18
2018-03-23T00:31:53.568Z,0.18
2018-03-23T00:31:57.672Z,0.17
2018-03-23T00:32:02.259Z,0.19
2018-03-23T00:32:06.256Z,0.18
2018-03-23T00:32:10.475Z,0.18
2018-03-23T00:32:14.357Z,0.18
2018-03-23T00:32:18.347Z,0.18
2018-03-23T00:32:22.555Z,0.18
2018-03-23T00:32:26.763Z,0.18
2018-03-23T00:32:30.645Z,0.18
2018-03-23T00:32:34.638Z,0.18
2018-03-23T00:32:38.740Z,0.18
2018-03-23T00:32:42.959Z,0.18
2018-03-23T00:32:46.841Z,0.18
2018-03-23T00:32:50.942Z,0.19
2018-03-23T00:32:54.931Z,0.18
2018-03-23T00:32:59.044Z,0.18
2018-03-23T00:33:03.235Z,0.19
2018-03-23T00:33:07.337Z,0.19
2018-03-23T00:33:11.658Z,0.18
2018-03-23T00:33:15.868Z,0.18
2018-03-23T00:33:19.877Z,0.18
2018-03-23T00:33:24.086Z,0.18
2018-03-23T00:33:28.078Z,0.18
2018-03-23T00:33:32.084Z,0.19
2018-03-23T00:33:36.188Z,0.19
2018-03-23T00:33:40.402Z,0.19
2018-03-23T00:33:44.607Z,0.19
2018-03-23T00:33:48.601Z,0.19
2018-03-23T00:33:52.810Z,0.19
2018-03-23T00:33:56.919Z,0.18
2018-03-23T00:34:00.804Z,0.19
2018-03-23T00:34:04.798Z,0.19
2018-03-23T00:34:09.011Z,0.19
2018-03-23T00:34:13.329Z,0.19
2018-03-23T00:34:17.544Z,0.19
2018-03-23T00:34:21.861Z,0.19
2018-03-23T00:34:25.745Z,0.2
2018-03-23T00:34:29.732Z,0.19
2018-03-23T00:34:33.948Z,0.2
2018-03-23T00:34:38.155Z,0.2
2018-03-23T00:34:42.262Z,0.2
2018-03-23T00:34:46.588Z,0.19
2018-03-23T00:34:50.695Z,0.19
2018-03-23T00:34:54.908Z,0.2
2018-03-23T00:34:59.008Z,0.2
2018-03-23T00:35:03.325Z,0.19
2018-03-23T00:35:07.428Z,0.2
2018-03-23T00:35:11.417Z,0.19
2018-03-23T00:35:15.412Z,0.2
2018-03-23T00:35:19.403Z,0.19
2018-03-23T00:35:23.717Z,0.19
2018-03-23T00:35:27.817Z,0.19
2018-03-23T00:35:31.914Z,0.19
2018-03-23T00:35:36.240Z,0.2
2018-03-23T00:35:40.343Z,0.19
2018-03-23T00:35:44.336Z,0.2
2018-03-23T00:35:48.222Z,0.2
2018-03-23T00:35:52.427Z,0.2
2018-03-23T00:35:56.638Z,0.19
2018-03-23T00:36:00.640Z,0.2
2018-03-23T00:36:04.518Z,0.2
2018-03-23T00:36:08.729Z,0.19
2018-03-23T00:36:12.724Z,0.2
2018-03-23T00:36:16.929Z,0.2
2018-03-23T00:36:21.026Z,0.19
2018-03-23T00:36:25.339Z,0.2
2018-03-23T00:36:29.436Z,0.2
2018-03-23T00:36:33.427Z,0.2
2018-03-23T00:36:37.316Z,0.21
2018-03-23T00:36:41.197Z,0.2
2018-03-23T00:36:45.186Z,0.2
2018-03-23T00:36:49.289Z,0.2
2018-03-23T00:36:53.502Z,0.2
2018-03-23T00:36:57.489Z,0.2
2018-03-23T00:37:01.843Z,0.19
2018-03-23T00:37:05.945Z,0.21
2018-03-23T00:37:10.048Z,0.21
2018-03-23T00:37:14.155Z,0.21
2018-03-23T00:37:18.477Z,0.21
2018-03-23T00:37:22.687Z,0.2
2018-03-23T00:37:26.897Z,0.21
2018-03-23T00:37:30.777Z,0.2
2018-03-23T00:37:34.882Z,0.2
2018-03-23T00:37:38.981Z,0.21
2018-03-23T00:37:43.090Z,0.21
2018-03-23T00:37:46.864Z,0.21
2018-03-23T00:37:50.967Z,0.22
2018-03-23T00:37:55.068Z,0.21
2018-03-23T00:37:59.378Z,0.21
2018-03-23T00:38:03.369Z,0.21
2018-03-23T00:38:07.362Z,0.21
2018-03-23T00:38:11.463Z,0.21
2018-03-23T00:38:15.779Z,0.21
2018-03-23T00:38:19.776Z,0.22
2018-03-23T00:38:23.890Z,0.22
2018-03-23T00:38:28.257Z,0.22
2018-03-23T00:38:32.572Z,0.22
2018-03-23T00:38:36.779Z,0.22
2018-03-23T00:38:40.768Z,0.22
2018-03-23T00:38:44.979Z,0.21
2018-03-23T00:38:49.088Z,0.22
2018-03-23T00:38:53.076Z,0.23
2018-03-23T00:38:57.189Z,0.21
2018-03-23T00:39:01.304Z,0.22
2018-03-23T00:39:05.765Z,0.22
2018-03-23T00:39:09.866Z,0.22
2018-03-23T00:39:14.191Z,0.22
2018-03-23T00:39:18.181Z,0.23
2018-03-23T00:39:22.394Z,0.22
2018-03-23T00:39:26.413Z,0.23
2018-03-23T00:39:30.409Z,0.24
2018-03-23T00:39:34.728Z,0.23
2018-03-23T00:39:38.994Z,0.23
2018-03-23T00:39:42.987Z,0.24
2018-03-23T00:39:47.213Z,0.24
2018-03-23T00:39:51.427Z,0.24
2018-03-23T00:39:55.745Z,0.24
2018-03-23T00:39:59.638Z,0.24
2018-03-23T00:40:03.882Z,0.23
2018-03-23T00:40:07.888Z,0.24
2018-03-23T00:40:11.882Z,0.24
2018-03-23T00:40:16.118Z,0.24
2018-03-23T00:40:20.325Z,0.24
2018-03-23T00:40:24.605Z,0.24
2018-03-23T00:40:28.712Z,0.24
2018-03-23T00:40:33.081Z,0.24
2018-03-23T00:40:37.079Z,0.25
2018-03-23T00:40:41.075Z,0.25
2018-03-23T00:40:45.179Z,0.24
2018-03-23T00:40:49.279Z,0.25
2018-03-23T00:40:53.494Z,0.25
2018-03-23T00:40:57.484Z,0.25
2018-03-23T00:41:01.479Z,0.25
2018-03-23T00:41:05.367Z,0.25
2018-03-23T00:41:09.463Z,0.25
2018-03-23T00:41:13.453Z,0.25
2018-03-23T00:41:17.552Z,0.25
2018-03-23T00:41:21.763Z,0.25
2018-03-23T00:41:25.758Z,0.26
2018-03-23T00:41:30.083Z,0.26
2018-03-23T00:41:34.307Z,0.27
2018-03-23T00:41:38.630Z,0.27
2018-03-23T00:41:42.512Z,0.27
2018-03-23T00:41:46.625Z,0.28
2018-03-23T00:41:50.732Z,0.27
2018-03-23T00:41:54.614Z,0.27
2018-03-23T00:41:58.939Z,0.27
2018-03-23T00:42:39.248Z,0.27
2018-03-23T00:42:43.497Z,0.28
2018-03-23T00:42:47.616Z,0.27
2018-03-23T00:42:51.946Z,0.28
2018-03-23T00:42:56.046Z,0.28
2018-03-23T00:43:00.357Z,0.28
2018-03-23T00:43:04.609Z,0.28
2018-03-23T00:43:08.819Z,0.27
2018-03-23T00:43:12.918Z,0.27
2018-03-23T00:43:16.802Z,0.28
2018-03-23T00:43:21.017Z,0.28
2018-03-23T00:43:25.230Z,0.29
2018-03-23T00:43:29.449Z,0.29
2018-03-23T00:43:33.580Z,0.29
2018-03-23T00:43:37.963Z,0.28
2018-03-23T00:43:42.066Z,0.28
2018-03-23T00:43:46.166Z,0.28
2018-03-23T00:43:50.055Z,0.29
2018-03-23T00:43:54.153Z,0.29
2018-03-23T00:43:58.147Z,0.29
2018-03-23T00:44:02.252Z,0.28
2018-03-23T00:44:06.352Z,0.27
2018-03-23T00:44:10.463Z,0.28
2018-03-23T00:44:14.563Z,0.28
2018-03-23T00:44:18.555Z,0.28
2018-03-23T00:44:22.765Z,0.28
2018-03-23T00:44:26.919Z,0.28
2018-03-23T00:44:31.021Z,0.28
2018-03-23T00:44:34.906Z,0.28
2018-03-23T00:44:38.912Z,0.28
2018-03-23T00:44:43.114Z,0.27
2018-03-23T00:44:47.321Z,0.28
2018-03-23T00:44:51.533Z,0.27
2018-03-23T00:44:55.745Z,0.28
2018-03-23T00:45:00.064Z,0.28
2018-03-23T00:45:04.535Z,0.27
2018-03-23T00:45:08.635Z,0.28
2018-03-23T00:45:12.843Z,0.28
2018-03-23T00:45:16.953Z,0.28
2018-03-23T00:45:20.943Z,0.27
2018-03-23T00:45:25.041Z,0.28
2018-03-23T00:45:29.030Z,0.28
2018-03-23T00:45:33.254Z,0.28
2018-03-23T00:45:37.252Z,0.29
2018-03-23T00:45:41.458Z,0.28
2018-03-23T00:45:45.451Z,0.28
2018-03-23T00:45:49.447Z,0.27
2018-03-23T00:45:53.438Z,0.28
2018-03-23T00:45:57.758Z,0.28
2018-03-23T00:46:01.976Z,0.28
2018-03-23T00:46:05.986Z,0.27
2018-03-23T00:46:10.206Z,0.29
2018-03-23T00:46:14.417Z,0.29
2018-03-23T00:46:18.517Z,0.27
2018-03-23T00:46:22.726Z,0.28
2018-03-23T00:46:26.946Z,0.28
2018-03-23T00:46:31.058Z,0.28
2018-03-23T00:46:35.159Z,0.28
2018-03-23T00:46:39.257Z,0.28
2018-03-23T00:46:43.254Z,0.29
2018-03-23T00:46:47.465Z,0.28
2018-03-23T00:46:51.683Z,0.28
2018-03-23T00:46:55.893Z,0.27
2018-03-23T00:46:59.990Z,0.28
2018-03-23T00:47:04.120Z,0.28
2018-03-23T00:47:08.233Z,0.28
2018-03-23T00:47:12.331Z,0.29
2018-03-23T00:47:16.539Z,0.28
2018-03-23T00:47:20.533Z,0.29
2018-03-23T00:47:24.755Z,0.3
2018-03-23T00:47:29.092Z,0.29
2018-03-23T00:47:33.311Z,0.28
2018-03-23T00:47:37.314Z,0.29
2018-03-23T00:47:41.528Z,0.29
2018-03-23T00:47:45.733Z,0.29
2018-03-23T00:47:49.950Z,0.3
2018-03-23T00:47:53.950Z,0.29
2018-03-23T00:47:58.157Z,0.29
2018-03-23T00:48:02.149Z,0.29
2018-03-23T00:48:06.037Z,0.3
2018-03-23T00:48:10.145Z,0.29
2018-03-23T00:48:14.243Z,0.29
2018-03-23T00:48:18.350Z,0.31
2018-03-23T00:48:22.346Z,0.3
2018-03-23T00:48:26.553Z,0.3
2018-03-23T00:48:30.436Z,0.29
2018-03-23T00:48:34.426Z,0.3
2018-03-23T00:48:38.310Z,0.3
2018-03-23T00:48:42.521Z,0.3
2018-03-23T00:48:46.537Z,0.3
2018-03-23T00:48:50.745Z,0.29
2018-03-23T00:48:54.857Z,0.3
2018-03-23T00:48:58.957Z,0.3
2018-03-23T00:49:03.138Z,0.3
2018-03-23T00:49:07.346Z,0.3
2018-03-23T00:49:11.340Z,0.31
2018-03-23T00:49:15.553Z,0.3
2018-03-23T00:49:19.650Z,0.3
2018-03-23T00:49:23.642Z,0.31
2018-03-23T00:49:27.526Z,0.3
2018-03-23T00:49:31.411Z,0.3
2018-03-23T00:49:35.618Z,0.3
2018-03-23T00:49:39.607Z,0.3
2018-03-23T00:49:43.938Z,0.3
2018-03-23T00:49:48.153Z,0.32
2018-03-23T00:49:52.256Z,0.3
2018-03-23T00:49:56.161Z,0.31
2018-03-23T00:50:00.274Z,0.31
2018-03-23T00:50:04.401Z,0.32
2018-03-23T00:50:08.181Z,0.31
2018-03-23T00:50:12.290Z,0.31
2018-03-23T00:50:16.403Z,0.31
2018-03-23T00:50:20.729Z,0.31
2018-03-23T00:50:24.719Z,0.3
2018-03-23T00:50:28.819Z,0.31
2018-03-23T00:50:32.827Z,0.31
2018-03-23T00:50:36.929Z,0.32
2018-03-23T00:50:41.256Z,0.31
2018-03-23T00:50:45.350Z,0.31
2018-03-23T00:50:49.638Z,0.31
2018-03-23T00:50:53.845Z,0.31
2018-03-23T00:50:58.049Z,0.31
2018-03-23T00:51:02.044Z,0.31
2018-03-23T00:51:06.034Z,0.31
2018-03-23T00:51:10.128Z,0.31
2018-03-23T00:51:14.229Z,0.31
2018-03-23T00:51:18.331Z,0.31
2018-03-23T00:51:22.540Z,0.31
2018-03-23T00:51:26.536Z,0.31
2018-03-23T00:51:30.416Z,0.31
2018-03-23T00:51:34.625Z,0.31
2018-03-23T00:51:38.724Z,0.3
2018-03-23T00:51:42.614Z,0.3
2018-03-23T00:51:46.938Z,0.31
2018-03-23T00:51:51.144Z,0.31
2018-03-23T00:51:55.248Z,0.31
2018-03-23T00:51:59.287Z,0.31
2018-03-23T00:52:03.385Z,0.3
2018-03-23T00:52:07.381Z,0.31
2018-03-23T00:52:11.478Z,0.3
2018-03-23T00:52:15.695Z,0.31
2018-03-23T00:52:20.073Z,0.3
2018-03-23T00:52:24.060Z,0.3
2018-03-23T00:52:27.946Z,0.3
2018-03-23T00:52:32.049Z,0.3
2018-03-23T00:52:36.040Z,0.3
2018-03-23T00:52:40.249Z,0.3
2018-03-23T00:52:44.482Z,0.31
2018-03-23T00:52:48.369Z,0.29
2018-03-23T00:52:52.573Z,0.3
2018-03-23T00:52:56.673Z,0.3
2018-03-23T00:53:00.553Z,0.3
2018-03-23T00:53:04.699Z,0.3
2018-03-23T00:53:08.908Z,0.3
2018-03-23T00:53:13.120Z,0.3
2018-03-23T00:53:17.220Z,0.3
2018-03-23T00:53:21.322Z,0.3
2018-03-23T00:53:25.424Z,0.29
2018-03-23T00:53:29.528Z,0.29
2018-03-23T00:53:33.640Z,0.29
2018-03-23T00:53:37.739Z,0.3
2018-03-23T00:53:41.834Z,0.3
2018-03-23T00:53:45.931Z,0.3
2018-03-23T00:53:49.923Z,0.29
2018-03-23T00:53:54.126Z,0.3
2018-03-23T00:53:58.009Z,0.3
2018-03-23T00:54:02.111Z,0.3
2018-03-23T00:54:06.106Z,0.31
2018-03-23T00:54:10.312Z,0.31
2018-03-23T00:54:14.519Z,0.3
2018-03-23T00:54:18.515Z,0.31
2018-03-23T00:54:22.728Z,0.3
2018-03-23T00:54:26.617Z,0.3
2018-03-23T00:54:30.836Z,0.3
2018-03-23T00:54:34.830Z,0.31
2018-03-23T00:54:39.146Z,0.3
2018-03-23T00:54:42.935Z,0.31
2018-03-23T00:54:47.142Z,0.31
2018-03-23T00:54:51.246Z,0.31
2018-03-23T00:54:55.453Z,0.31
2018-03-23T00:54:59.449Z,0.31
2018-03-23T00:55:04.004Z,0.3
2018-03-23T00:55:07.995Z,0.31
2018-03-23T00:55:12.203Z,0.3
2018-03-23T00:55:16.529Z,0.31
2018-03-23T00:55:20.629Z,0.31
2018-03-23T00:55:24.942Z,0.31
2018-03-23T00:55:29.160Z,0.31
2018-03-23T00:55:33.152Z,0.31
2018-03-23T00:55:37.367Z,0.32
2018-03-23T00:55:41.575Z,0.32
2018-03-23T00:55:45.592Z,0.32
2018-03-23T00:55:49.575Z,0.32
2018-03-23T00:55:53.691Z,0.32
2018-03-23T00:55:57.906Z,0.31
2018-03-23T00:56:02.110Z,0.32
2018-03-23T00:56:05.888Z,0.32